createdAt,value
2022-09-20T00:01:12.888Z,9.20
2022-09-20T00:03:43.626Z,9.20
2022-09-20T00:06:14.365Z,9.20
2022-09-20T00:08:42.994Z,9.20
2022-09-20T00:11:15.380Z,9.10
2022-09-20T00:13:46.021Z,9.20
2022-09-20T00:16:15.946Z,9.20
2022-09-20T00:18:44.218Z,9.20
2022-09-20T00:21:17.722Z,9.20
2022-09-20T00:23:59.999Z,9.30
2022-09-20T00:26:29.755Z,9.30
2022-09-20T00:29:04.110Z,9.30
2022-09-20T00:31:40.364Z,9.20
2022-09-20T00:34:27.653Z,9.10
2022-09-20T00:36:58.420Z,9.30
2022-09-20T00:39:26.508Z,9.30
2022-09-20T00:41:56.785Z,9.30
2022-09-20T00:44:52.702Z,9.30
2022-09-20T00:47:35.693Z,9.20
2022-09-20T00:50:14.336Z,9.20
2022-09-20T00:53:17.787Z,9.10
2022-09-20T00:55:49.487Z,9.00
2022-09-20T00:58:18.443Z,8.90
2022-09-20T01:00:50.127Z,8.70
2022-09-20T01:03:23.001Z,8.50
2022-09-20T01:05:53.968Z,8.40
2022-09-20T01:08:24.470Z,8.30
2022-09-20T01:10:52.668Z,8.20
2022-09-20T01:13:20.616Z,8.10
2022-09-20T01:15:50.733Z,8.10
2022-09-20T01:18:21.093Z,8.00
2022-09-20T01:20:50.242Z,8.10
2022-09-20T01:23:32.670Z,8.00
2022-09-20T01:26:33.815Z,8.00
2022-09-20T01:29:13.774Z,8.00
2022-09-20T01:31:47.306Z,8.00
2022-09-20T01:34:18.921Z,7.90
2022-09-20T01:36:53.680Z,7.90
2022-09-20T01:39:32.420Z,7.70
2022-09-20T01:42:44.945Z,7.70
2022-09-20T01:45:47.289Z,7.70
2022-09-20T01:48:35.966Z,7.60
2022-09-20T01:51:57.807Z,7.80
2022-09-20T01:55:13.750Z,7.50
2022-09-20T01:58:16.687Z,7.40
2022-09-20T02:01:04.748Z,7.30
2022-09-20T02:04:02.295Z,7.20
2022-09-20T02:06:53.895Z,7.20
2022-09-20T02:09:47.369Z,7.20
2022-09-20T02:12:33.674Z,7.20
2022-09-20T02:15:10.071Z,7.20
2022-09-20T02:17:48.437Z,7.20
2022-09-20T02:20:36.891Z,7.20
2022-09-20T02:23:17.897Z,7.20
2022-09-20T02:26:12.074Z,7.10
2022-09-20T02:28:55.690Z,7.10
2022-09-20T02:31:45.217Z,7.10
2022-09-20T02:34:53.611Z,7.00
2022-09-20T02:37:54.752Z,7.00
2022-09-20T02:40:36.315Z,6.90
2022-09-20T02:43:11.909Z,6.90
2022-09-20T02:45:48.948Z,6.80
2022-09-20T02:48:24.853Z,6.80
2022-09-20T02:51:00.584Z,6.80
2022-09-20T02:53:40.848Z,6.70
2022-09-20T02:56:18.546Z,6.70
2022-09-20T02:58:56.094Z,6.70
2022-09-20T03:01:36.185Z,6.60
2022-09-20T03:04:19.271Z,6.60
2022-09-20T03:06:54.510Z,6.50
2022-09-20T03:09:35.011Z,6.50
2022-09-20T03:12:15.975Z,6.50
2022-09-20T03:14:51.460Z,6.50
2022-09-20T03:17:28.593Z,6.40
2022-09-20T03:20:07.920Z,6.30
2022-09-20T03:22:50.489Z,6.30
2022-09-20T03:25:49.173Z,6.30
2022-09-20T03:28:38.285Z,6.20
2022-09-20T03:31:15.672Z,6.30
2022-09-20T03:33:54.627Z,6.30
2022-09-20T03:36:40.167Z,6.30
2022-09-20T03:39:26.299Z,6.30
2022-09-20T03:42:10.963Z,6.30
2022-09-20T03:44:53.788Z,6.30
2022-09-20T03:47:40.059Z,6.30
2022-09-20T03:50:43.594Z,6.40
2022-09-20T03:53:32.081Z,6.30
2022-09-20T03:56:24.969Z,6.40
2022-09-20T03:59:19.423Z,6.50
2022-09-20T04:02:15.566Z,6.60
2022-09-20T04:04:49.378Z,6.70
2022-09-20T04:07:23.527Z,6.80
2022-09-20T04:10:02.251Z,6.80
2022-09-20T04:12:41.899Z,6.80
2022-09-20T04:15:24.827Z,6.80
2022-09-20T04:17:59.552Z,6.80
2022-09-20T04:20:38.597Z,6.90
2022-09-20T04:23:18.944Z,6.90
2022-09-20T04:25:50.822Z,6.90
2022-09-20T04:28:25.462Z,6.90
2022-09-20T04:31:03.731Z,7.00
2022-09-20T04:33:37.121Z,7.00
2022-09-20T04:36:29.665Z,6.90
2022-09-20T04:39:05.294Z,6.90
2022-09-20T04:42:16.282Z,6.90
2022-09-20T04:45:10.375Z,6.90
2022-09-20T04:47:57.163Z,6.80
2022-09-20T04:50:53.472Z,6.80
2022-09-20T04:54:08.380Z,6.80
2022-09-20T04:56:52.196Z,6.80
2022-09-20T04:59:34.824Z,6.80
2022-09-20T05:02:33.685Z,6.80
2022-09-20T05:05:48.589Z,6.70
2022-09-20T05:08:48.526Z,6.70
2022-09-20T05:11:51.390Z,6.70
2022-09-20T05:15:01.650Z,6.70
2022-09-20T05:17:44.779Z,6.60
2022-09-20T05:20:47.884Z,6.70
2022-09-20T05:23:46.907Z,6.70
2022-09-20T05:26:22.632Z,6.70
2022-09-20T05:28:57.968Z,6.60
2022-09-20T05:31:40.510Z,6.70
2022-09-20T05:34:18.090Z,6.70
2022-09-20T05:36:56.940Z,6.70
2022-09-20T05:39:39.713Z,6.70
2022-09-20T05:42:18.230Z,6.80
2022-09-20T05:44:58.709Z,6.80
2022-09-20T05:47:37.060Z,6.90
2022-09-20T05:50:37.827Z,7.00
2022-09-20T05:53:47.079Z,7.00
2022-09-20T05:56:23.447Z,7.10
2022-09-20T05:59:07.561Z,7.10
2022-09-20T06:01:42.891Z,7.10
2022-09-20T06:04:19.015Z,7.20
2022-09-20T06:06:56.436Z,7.20
2022-09-20T06:09:39.040Z,7.30
2022-09-20T06:12:27.417Z,7.30
2022-09-20T06:15:04.840Z,7.30
2022-09-20T06:17:38.375Z,7.30
2022-09-20T06:20:17.191Z,7.30
2022-09-20T06:22:48.982Z,7.40
2022-09-20T06:25:24.130Z,7.40
2022-09-20T06:27:55.139Z,7.50
2022-09-20T06:30:27.600Z,7.60
2022-09-20T06:32:57.826Z,7.70
2022-09-20T06:35:31.839Z,7.80
2022-09-20T06:38:27.616Z,7.90
2022-09-20T06:41:14.795Z,8.00
2022-09-20T06:43:43.026Z,8.20
2022-09-20T06:46:12.947Z,8.50
2022-09-20T06:48:41.022Z,8.70
2022-09-20T06:51:11.024Z,9.00
2022-09-20T06:53:41.992Z,9.10
2022-09-20T06:56:18.090Z,9.30
2022-09-20T06:58:46.082Z,9.50
2022-09-20T07:01:14.278Z,9.70
2022-09-20T07:03:42.456Z,9.80
2022-09-20T07:06:10.659Z,9.90
2022-09-20T07:08:38.947Z,10.00
2022-09-20T07:11:09.603Z,10.20
2022-09-20T07:13:38.953Z,10.40
2022-09-20T07:16:08.513Z,10.70
2022-09-20T07:18:36.449Z,10.90
2022-09-20T07:21:05.085Z,11.20
2022-09-20T07:23:33.262Z,11.40
2022-09-20T07:26:01.369Z,11.50
2022-09-20T07:28:30.098Z,11.50
2022-09-20T07:30:59.474Z,11.40
2022-09-20T07:33:27.460Z,11.30
2022-09-20T07:35:57.017Z,11.40
2022-09-20T07:38:25.236Z,11.30
2022-09-20T07:40:57.607Z,11.30
2022-09-20T07:43:26.044Z,11.40
2022-09-20T07:45:59.665Z,11.40
2022-09-20T07:48:31.973Z,11.40
2022-09-20T07:51:06.847Z,11.40
2022-09-20T07:53:36.892Z,11.40
2022-09-20T07:56:08.384Z,11.50
2022-09-20T07:58:37.583Z,11.50
2022-09-20T08:01:07.182Z,11.60
2022-09-20T08:03:36.940Z,11.70
2022-09-20T08:06:07.040Z,11.80
2022-09-20T08:08:36.183Z,12.00
2022-09-20T08:11:06.680Z,12.20
2022-09-20T08:16:25.499Z,12.50
2022-09-20T08:18:57.211Z,12.70
2022-09-20T08:21:26.045Z,12.90
2022-09-20T08:23:54.320Z,12.70
2022-09-20T08:26:24.645Z,12.60
2022-09-20T08:28:54.555Z,12.40
2022-09-20T08:31:25.559Z,12.20
2022-09-20T08:33:55.686Z,11.90
2022-09-20T08:36:25.601Z,11.80
2022-09-20T08:41:47.179Z,11.60
2022-09-20T08:44:19.679Z,11.50
2022-09-20T08:46:51.343Z,11.40
2022-09-20T08:49:27.527Z,11.50
2022-09-20T08:51:58.106Z,11.70
2022-09-20T08:54:32.183Z,11.80
2022-09-20T08:57:05.514Z,12.10
2022-09-20T08:59:34.137Z,12.40
2022-09-20T09:02:02.297Z,12.50
2022-09-20T09:04:37.329Z,12.60
2022-09-20T09:07:08.225Z,12.90
2022-09-20T09:09:41.158Z,13.10
2022-09-20T09:12:18.904Z,13.30
2022-09-20T09:14:51.060Z,13.20
2022-09-20T09:17:27.238Z,13.20
2022-09-20T09:19:58.259Z,13.20
2022-09-20T09:22:32.262Z,13.20
2022-09-20T09:25:24.929Z,13.10
2022-09-20T09:27:55.380Z,13.10
2022-09-20T09:30:27.318Z,13.20
2022-09-20T09:33:33.273Z,13.20
2022-09-20T09:36:08.373Z,13.20
2022-09-20T09:38:38.694Z,13.20
2022-09-20T09:41:08.522Z,13.20
2022-09-20T09:43:40.386Z,13.10
2022-09-20T09:46:21.251Z,13.10
2022-09-20T09:49:06.827Z,13.10
2022-09-20T09:51:38.635Z,13.30
2022-09-20T09:54:08.163Z,13.30
2022-09-20T09:56:49.196Z,13.20
2022-09-20T09:59:52.684Z,13.30
2022-09-20T10:02:35.924Z,13.40
2022-09-20T10:05:11.805Z,13.40
2022-09-20T10:07:51.177Z,13.40
2022-09-20T10:10:31.693Z,13.50
2022-09-20T10:13:14.016Z,13.50
2022-09-20T10:15:48.106Z,13.60
2022-09-20T10:18:32.774Z,13.70
2022-09-20T10:21:10.094Z,13.80
2022-09-20T10:24:08.825Z,14.00
2022-09-20T10:27:15.492Z,14.20
2022-09-20T10:29:58.367Z,14.50
2022-09-20T10:32:39.503Z,14.50
2022-09-20T10:35:29.353Z,14.50
2022-09-20T10:38:15.512Z,14.60
2022-09-20T10:41:21.198Z,15.10
2022-09-20T10:47:03.269Z,16.00
2022-09-20T10:49:37.417Z,15.70
2022-09-20T10:52:27.019Z,15.60
2022-09-20T10:55:08.879Z,15.70
2022-09-20T10:57:54.580Z,15.80
2022-09-20T11:00:24.352Z,15.60
2022-09-20T11:03:11.699Z,15.40
2022-09-20T11:05:50.960Z,15.30
2022-09-20T11:08:22.865Z,15.30
2022-09-20T11:10:54.542Z,15.20
2022-09-20T11:13:28.713Z,15.20
2022-09-20T11:16:04.257Z,15.10
2022-09-20T11:18:38.338Z,15.30
2022-09-20T11:21:11.186Z,15.50
2022-09-20T11:23:50.962Z,15.60
2022-09-20T11:26:25.505Z,15.90
2022-09-20T11:28:58.648Z,15.80
2022-09-20T11:31:31.314Z,15.60
2022-09-20T11:34:04.476Z,15.50
2022-09-20T11:36:39.422Z,15.40
2022-09-20T11:39:16.196Z,15.70
2022-09-20T11:41:44.829Z,15.90
2022-09-20T11:44:17.993Z,16.00
2022-09-20T11:46:52.207Z,16.10
2022-09-20T11:49:24.853Z,16.40
2022-09-20T11:52:21.824Z,16.40
2022-09-20T11:55:04.308Z,16.40
2022-09-20T11:57:32.778Z,16.30
2022-09-20T12:00:04.525Z,16.40
2022-09-20T12:02:37.474Z,16.50
2022-09-20T12:05:06.807Z,16.50
2022-09-20T12:07:39.650Z,16.30
2022-09-20T12:10:09.767Z,16.10
2022-09-20T12:12:41.481Z,15.90
2022-09-20T12:15:25.781Z,15.80
2022-09-20T12:18:16.372Z,16.00
2022-09-20T12:21:16.740Z,16.30
2022-09-20T12:24:11.577Z,16.60
2022-09-20T12:26:44.015Z,16.80
2022-09-20T12:29:50.559Z,16.70
2022-09-20T12:32:53.098Z,16.30
2022-09-20T12:35:52.874Z,16.00
2022-09-20T12:38:29.019Z,15.90
2022-09-20T12:41:05.493Z,15.80
2022-09-20T12:43:35.409Z,15.90
2022-09-20T12:46:08.676Z,15.80
2022-09-20T12:48:40.719Z,15.80
2022-09-20T12:51:38.722Z,15.80
2022-09-20T12:54:09.914Z,15.60
2022-09-20T12:56:40.474Z,15.90
2022-09-20T12:59:22.799Z,16.00
2022-09-20T13:01:51.116Z,15.90
2022-09-20T13:04:58.864Z,15.80
2022-09-20T13:07:48.739Z,15.60
2022-09-20T13:10:27.457Z,15.30
2022-09-20T13:13:01.781Z,15.50
2022-09-20T13:15:31.742Z,15.70
2022-09-20T13:18:02.288Z,16.00
2022-09-20T13:20:34.692Z,16.00
2022-09-20T13:23:06.270Z,16.10
2022-09-20T13:25:40.062Z,16.20
2022-09-20T13:28:19.069Z,16.20
2022-09-20T13:30:48.967Z,16.10
2022-09-20T13:33:21.692Z,16.10
2022-09-20T13:35:54.410Z,15.90
2022-09-20T13:38:26.568Z,15.60
2022-09-20T13:41:02.714Z,15.30
2022-09-20T13:43:33.726Z,15.10
2022-09-20T13:46:09.056Z,15.00
2022-09-20T13:48:37.622Z,14.70
2022-09-20T13:51:05.874Z,14.60
2022-09-20T13:53:42.997Z,14.60
2022-09-20T13:56:12.654Z,14.70
2022-09-20T13:58:40.599Z,14.70
2022-09-20T14:01:23.910Z,14.80
2022-09-20T14:03:52.270Z,14.80
2022-09-20T14:06:27.044Z,14.90
2022-09-20T14:08:58.959Z,14.90
2022-09-20T14:11:29.235Z,15.00
2022-09-20T14:13:59.244Z,15.00
2022-09-20T14:16:30.971Z,15.10
2022-09-20T14:19:00.138Z,15.10
2022-09-20T14:21:32.300Z,15.10
2022-09-20T14:24:04.817Z,15.40
2022-09-20T14:26:36.116Z,15.80
2022-09-20T14:29:31.401Z,15.90
2022-09-20T14:32:02.117Z,16.10
2022-09-20T14:34:30.133Z,15.80
2022-09-20T14:37:07.599Z,15.60
2022-09-20T14:39:46.938Z,15.40
2022-09-20T14:42:21.780Z,15.30
2022-09-20T14:44:52.945Z,15.20
2022-09-20T14:47:36.533Z,15.20
2022-09-20T14:50:05.632Z,15.20
2022-09-20T14:52:38.252Z,15.30
2022-09-20T14:55:21.408Z,15.10
2022-09-20T14:57:50.008Z,15.00
2022-09-20T15:00:20.617Z,15.10
2022-09-20T15:02:49.157Z,15.10
2022-09-20T15:05:23.867Z,15.10
2022-09-20T15:07:51.885Z,15.20
2022-09-20T15:10:21.257Z,15.20
2022-09-20T15:12:49.187Z,15.20
2022-09-20T15:15:19.284Z,15.30
2022-09-20T15:17:48.564Z,15.20
2022-09-20T15:20:24.294Z,15.30
2022-09-20T15:22:52.560Z,15.40
2022-09-20T15:25:22.575Z,15.40
2022-09-20T15:27:51.689Z,15.30
2022-09-20T15:30:21.096Z,15.30
2022-09-20T15:32:49.486Z,15.20
2022-09-20T15:35:17.522Z,15.10
2022-09-20T15:37:45.639Z,15.00
2022-09-20T15:40:14.106Z,14.90
2022-09-20T15:42:43.808Z,14.80
2022-09-20T15:45:13.328Z,14.70
2022-09-20T15:47:41.636Z,14.40
2022-09-20T15:50:10.964Z,14.40
2022-09-20T15:52:41.576Z,14.20
2022-09-20T15:55:11.005Z,14.00
2022-09-20T15:57:41.855Z,13.90
2022-09-20T16:00:12.215Z,13.80
2022-09-20T16:02:40.182Z,13.70
2022-09-20T16:05:10.046Z,13.80
2022-09-20T16:07:38.193Z,13.70
2022-09-20T16:10:06.995Z,13.70
2022-09-20T16:12:34.994Z,13.90
2022-09-20T16:15:02.949Z,13.90
2022-09-20T16:17:49.914Z,14.00
2022-09-20T16:20:17.955Z,13.90
2022-09-20T16:22:47.012Z,14.00
2022-09-20T16:25:15.050Z,14.00
2022-09-20T16:27:43.124Z,13.90
2022-09-20T16:30:12.131Z,13.80
2022-09-20T16:32:42.026Z,13.80
2022-09-20T16:35:10.148Z,13.70
2022-09-20T16:37:39.315Z,13.60
2022-09-20T16:40:14.079Z,13.50
2022-09-20T16:42:42.247Z,13.40
2022-09-20T16:45:13.337Z,13.30
2022-09-20T16:47:42.632Z,13.20
2022-09-20T16:50:11.887Z,13.10
2022-09-20T16:52:39.937Z,13.00
2022-09-20T16:55:11.893Z,12.70
2022-09-20T16:57:42.959Z,12.60
2022-09-20T17:00:11.990Z,12.40
2022-09-20T17:02:42.647Z,12.40
2022-09-20T17:05:15.247Z,12.30
2022-09-20T17:07:44.125Z,12.20
2022-09-20T17:10:12.307Z,12.00
2022-09-20T17:12:42.329Z,11.90
2022-09-20T17:15:13.136Z,11.80
2022-09-20T17:17:42.154Z,11.70
2022-09-20T17:20:10.252Z,11.60
2022-09-20T17:22:39.564Z,11.50
2022-09-20T17:25:08.422Z,11.40
2022-09-20T17:27:39.577Z,11.30
2022-09-20T17:30:10.122Z,11.20
2022-09-20T17:32:38.237Z,11.20
2022-09-20T17:35:07.283Z,11.10
2022-09-20T17:37:35.225Z,10.90
2022-09-20T17:40:05.224Z,10.90
2022-09-20T17:42:33.803Z,10.80
2022-09-20T17:45:01.948Z,10.70
2022-09-20T17:47:29.819Z,10.60
2022-09-20T17:49:57.776Z,10.60
2022-09-20T17:52:25.689Z,10.50
2022-09-20T17:54:53.669Z,10.40
2022-09-20T17:57:23.020Z,10.30
2022-09-20T17:59:50.941Z,10.30
2022-09-20T18:02:18.929Z,10.30
2022-09-20T18:04:47.026Z,10.20
2022-09-20T18:07:15.703Z,10.30
2022-09-20T18:09:43.567Z,10.20
2022-09-20T18:12:15.399Z,10.10
2022-09-20T18:14:47.479Z,10.20
2022-09-20T18:17:15.477Z,10.10
2022-09-20T18:19:44.548Z,10.10
2022-09-20T18:22:13.242Z,10.00
2022-09-20T18:24:41.205Z,9.90
2022-09-20T18:27:09.381Z,9.90
2022-09-20T18:29:37.446Z,9.80
2022-09-20T18:32:08.619Z,9.70
2022-09-20T18:34:36.618Z,9.70
2022-09-20T18:37:09.102Z,9.60
2022-09-20T18:39:40.692Z,9.60
2022-09-20T18:42:08.917Z,9.50
2022-09-20T18:44:36.921Z,9.50
2022-09-20T18:47:06.898Z,9.40
2022-09-20T18:49:34.931Z,9.30
2022-09-20T18:52:03.390Z,9.30
2022-09-20T18:54:33.397Z,9.30
2022-09-20T18:57:02.064Z,9.10
2022-09-20T18:59:30.714Z,9.10
2022-09-20T19:02:18.052Z,9.10
2022-09-20T19:05:08.354Z,9.00
2022-09-20T19:07:46.541Z,9.00
2022-09-20T19:10:25.246Z,9.00
2022-09-20T19:12:58.933Z,8.90
2022-09-20T19:15:43.528Z,8.90
2022-09-20T19:18:43.919Z,8.90
2022-09-20T19:21:19.911Z,8.90
2022-09-20T19:24:03.062Z,8.90
2022-09-20T19:26:37.853Z,8.90
2022-09-20T19:29:15.936Z,9.00
2022-09-20T19:31:44.577Z,9.00
2022-09-20T19:34:18.887Z,9.00
2022-09-20T19:36:58.034Z,9.00
2022-09-20T19:39:37.906Z,9.10
2022-09-20T19:42:16.432Z,9.10
2022-09-20T19:44:55.346Z,9.10
2022-09-20T19:47:37.950Z,9.10
2022-09-20T19:50:16.207Z,9.20
2022-09-20T19:52:44.747Z,9.10
2022-09-20T19:55:14.351Z,9.20
2022-09-20T19:57:46.811Z,9.20
2022-09-20T20:00:17.203Z,9.20
2022-09-20T20:02:45.973Z,9.10
2022-09-20T20:05:18.308Z,9.10
2022-09-20T20:07:51.909Z,9.00
2022-09-20T20:10:26.366Z,8.90
2022-09-20T20:13:00.211Z,8.80
2022-09-20T20:15:40.272Z,8.80
2022-09-20T20:18:18.294Z,8.70
2022-09-20T20:20:50.952Z,8.70
2022-09-20T20:23:42.430Z,8.70
2022-09-20T20:26:21.919Z,8.60
2022-09-20T20:28:50.836Z,8.60
2022-09-20T20:31:19.698Z,8.50
2022-09-20T20:33:47.981Z,8.40
2022-09-20T20:36:18.170Z,8.30
2022-09-20T20:38:49.942Z,8.30
2022-09-20T20:41:21.739Z,8.20
2022-09-20T20:43:57.270Z,8.10
2022-09-20T20:46:25.877Z,8.10
2022-09-20T20:48:54.282Z,8.00
2022-09-20T20:51:24.318Z,8.00
2022-09-20T20:53:54.003Z,7.90
2022-09-20T20:56:25.680Z,7.90
2022-09-20T20:58:54.316Z,7.90
2022-09-20T21:01:24.874Z,7.80
2022-09-20T21:03:54.700Z,7.90
2022-09-20T21:06:26.109Z,7.80
2022-09-20T21:08:54.509Z,7.80
2022-09-20T21:11:24.578Z,7.70
2022-09-20T21:13:53.174Z,7.70
2022-09-20T21:16:23.041Z,7.70
2022-09-20T21:18:52.215Z,7.70
2022-09-20T21:21:22.282Z,7.70
2022-09-20T21:23:53.519Z,7.70
2022-09-20T21:26:22.695Z,7.60
2022-09-20T21:28:52.427Z,7.60
2022-09-20T21:31:22.477Z,7.50
2022-09-20T21:33:51.120Z,7.50
2022-09-20T21:36:20.520Z,7.40
2022-09-20T21:38:48.760Z,7.40
2022-09-20T21:41:22.512Z,7.40
2022-09-20T21:43:53.844Z,7.30
2022-09-20T21:46:23.734Z,7.30
2022-09-20T21:48:52.155Z,7.30
2022-09-20T21:51:21.815Z,7.30
2022-09-20T21:53:50.619Z,7.30
2022-09-20T21:56:20.100Z,7.30
2022-09-20T21:58:48.296Z,7.20
2022-09-20T22:01:18.376Z,7.20
2022-09-20T22:03:48.288Z,7.20
2022-09-20T22:06:18.185Z,7.10
2022-09-20T22:08:49.073Z,7.10
2022-09-20T22:11:17.776Z,7.00
2022-09-20T22:13:49.868Z,7.00
2022-09-20T22:16:19.897Z,7.00
2022-09-20T22:18:48.358Z,6.90
2022-09-20T22:21:18.961Z,6.90
2022-09-20T22:23:50.562Z,6.90
2022-09-20T22:26:21.222Z,6.90
2022-09-20T22:28:51.710Z,6.90
2022-09-20T22:31:21.543Z,6.90
2022-09-20T22:33:51.479Z,6.80
2022-09-20T22:36:21.608Z,6.80
2022-09-20T22:38:50.107Z,6.80
2022-09-20T22:41:19.632Z,6.80
2022-09-20T22:43:47.981Z,6.70
2022-09-20T22:50:20.517Z,6.70
2022-09-20T22:53:17.268Z,6.60
2022-09-20T22:56:49.010Z,6.60
2022-09-20T22:59:27.727Z,6.60
2022-09-20T23:02:16.876Z,6.60
2022-09-20T23:05:20.183Z,6.60
2022-09-20T23:08:06.592Z,6.50
2022-09-20T23:11:23.798Z,6.50
2022-09-20T23:14:22.760Z,6.50
2022-09-20T23:17:05.276Z,6.50
2022-09-20T23:19:37.217Z,6.50
2022-09-20T23:22:05.669Z,6.50
2022-09-20T23:24:38.174Z,6.40
2022-09-20T23:27:15.913Z,6.40
2022-09-20T23:29:44.306Z,6.50
2022-09-20T23:32:12.574Z,6.30
2022-09-20T23:34:42.350Z,6.30
2022-09-20T23:37:10.843Z,6.40
2022-09-20T23:39:39.063Z,6.30
2022-09-20T23:42:07.767Z,6.30
2022-09-20T23:44:35.809Z,6.20
2022-09-20T23:47:03.792Z,6.20
2022-09-20T23:49:32.025Z,6.20
2022-09-20T23:52:01.804Z,6.20
2022-09-20T23:54:29.877Z,6.20
2022-09-20T23:56:58.001Z,6.20
2022-09-20T23:59:26.090Z,6.20
